Terminal Aerodrome Forecast
Issued by NWS

Home | Current Version | Previous Version | Text Only | Print | Product List | Glossary On
Versions: 1 2 3 4 5 6 7 8 9 10 11 12 13 14 15 16 17 18
000
FTUS45 KTFX 191120
TAFGTF
TAF
KGTF 191120Z 1912/2012 20010KT P6SM SCT070 OVC150
      TEMPO 1913/1917 -RA BKN070
     FM192200 22015KT P6SM -RA BKN040 OVC070
     FM200200 22010KT P6SM BKN070 BKN150=

USA.gov is the U.S. government's official web portal to all federal, state and local government web resources and services.